sensor_id;sensor_type;location;lat;lon;timestamp;P1;durP1;ratioP1;P2;durP2;ratioP2
4980;SDS011;2507;50.392;7.482;2023-05-07T00:01:28;8.90;;;8.10;;
4980;SDS011;2507;50.392;7.482;2023-05-07T00:03:53;9.53;;;8.70;;
4980;SDS011;2507;50.392;7.482;2023-05-07T00:06:18;9.13;;;8.33;;
4980;SDS011;2507;50.392;7.482;2023-05-07T00:08:44;10.07;;;9.20;;
4980;SDS011;2507;50.392;7.482;2023-05-07T00:11:09;10.13;;;9.30;;
4980;SDS011;2507;50.392;7.482;2023-05-07T00:13:35;12.23;;;11.00;;
4980;SDS011;2507;50.392;7.482;2023-05-07T00:16:03;10.07;;;9.33;;
4980;SDS011;2507;50.392;7.482;2023-05-07T00:18:28;10.50;;;9.50;;
4980;SDS011;2507;50.392;7.482;2023-05-07T00:20:54;9.23;;;8.37;;
4980;SDS011;2507;50.392;7.482;2023-05-07T00:23:19;9.30;;;8.50;;
4980;SDS011;2507;50.392;7.482;2023-05-07T00:25:44;10.07;;;9.27;;
4980;SDS011;2507;50.392;7.482;2023-05-07T00:28:10;10.03;;;9.13;;
4980;SDS011;2507;50.392;7.482;2023-05-07T00:30:35;11.27;;;10.17;;
4980;SDS011;2507;50.392;7.482;2023-05-07T00:33:01;9.90;;;8.90;;
4980;SDS011;2507;50.392;7.482;2023-05-07T00:35:26;8.73;;;7.83;;
4980;SDS011;2507;50.392;7.482;2023-05-07T00:37:51;10.13;;;9.13;;
4980;SDS011;2507;50.392;7.482;2023-05-07T00:40:17;9.53;;;8.73;;
4980;SDS011;2507;50.392;7.482;2023-05-07T00:42:42;8.73;;;8.03;;
4980;SDS011;2507;50.392;7.482;2023-05-07T00:45:11;9.20;;;8.53;;
4980;SDS011;2507;50.392;7.482;2023-05-07T00:47:37;8.77;;;8.07;;
4980;SDS011;2507;50.392;7.482;2023-05-07T00:50:02;9.73;;;8.73;;
4980;SDS011;2507;50.392;7.482;2023-05-07T00:52:28;9.30;;;8.50;;
4980;SDS011;2507;50.392;7.482;2023-05-07T00:54:54;10.57;;;9.47;;
4980;SDS011;2507;50.392;7.482;2023-05-07T00:57:20;10.47;;;9.47;;
4980;SDS011;2507;50.392;7.482;2023-05-07T00:59:46;12.27;;;8.97;;
4980;SDS011;2507;50.392;7.482;2023-05-07T01:02:11;11.40;;;9.90;;
4980;SDS011;2507;50.392;7.482;2023-05-07T01:04:37;9.87;;;8.97;;
4980;SDS011;2507;50.392;7.482;2023-05-07T01:07:02;10.40;;;9.53;;
4980;SDS011;2507;50.392;7.482;2023-05-07T01:09:29;9.57;;;8.77;;
4980;SDS011;2507;50.392;7.482;2023-05-07T01:11:54;9.20;;;8.40;;
4980;SDS011;2507;50.392;7.482;2023-05-07T01:14:22;8.30;;;7.70;;
4980;SDS011;2507;50.392;7.482;2023-05-07T01:16:48;10.30;;;8.57;;
4980;SDS011;2507;50.392;7.482;2023-05-07T01:19:16;8.83;;;8.13;;
4980;SDS011;2507;50.392;7.482;2023-05-07T01:21:47;8.57;;;7.93;;
4980;SDS011;2507;50.392;7.482;2023-05-07T01:24:13;9.10;;;8.40;;
4980;SDS011;2507;50.392;7.482;2023-05-07T01:26:39;8.90;;;8.17;;
4980;SDS011;2507;50.392;7.482;2023-05-07T01:29:04;9.50;;;8.60;;
4980;SDS011;2507;50.392;7.482;2023-05-07T01:31:30;8.50;;;7.80;;
4980;SDS011;2507;50.392;7.482;2023-05-07T01:33:56;8.77;;;8.07;;
4980;SDS011;2507;50.392;7.482;2023-05-07T01:36:24;8.30;;;7.60;;
4980;SDS011;2507;50.392;7.482;2023-05-07T01:38:52;8.73;;;8.03;;
4980;SDS011;2507;50.392;7.482;2023-05-07T01:41:18;9.03;;;8.30;;
4980;SDS011;2507;50.392;7.482;2023-05-07T01:43:44;9.40;;;8.60;;
4980;SDS011;2507;50.392;7.482;2023-05-07T01:46:11;9.40;;;8.50;;
4980;SDS011;2507;50.392;7.482;2023-05-07T01:48:38;8.77;;;7.87;;
4980;SDS011;2507;50.392;7.482;2023-05-07T01:51:04;8.80;;;8.00;;
4980;SDS011;2507;50.392;7.482;2023-05-07T01:53:35;8.90;;;8.10;;
4980;SDS011;2507;50.392;7.482;2023-05-07T01:56:01;10.03;;;9.03;;
4980;SDS011;2507;50.392;7.482;2023-05-07T01:58:26;10.13;;;9.20;;
4980;SDS011;2507;50.392;7.482;2023-05-07T02:00:52;10.10;;;9.30;;
4980;SDS011;2507;50.392;7.482;2023-05-07T02:03:17;10.63;;;9.70;;
4980;SDS011;2507;50.392;7.482;2023-05-07T02:05:42;12.27;;;10.17;;
4980;SDS011;2507;50.392;7.482;2023-05-07T02:08:07;9.93;;;9.03;;
4980;SDS011;2507;50.392;7.482;2023-05-07T02:10:33;9.03;;;8.33;;
4980;SDS011;2507;50.392;7.482;2023-05-07T02:12:58;9.33;;;8.43;;
4980;SDS011;2507;50.392;7.482;2023-05-07T02:15:26;8.30;;;7.70;;
4980;SDS011;2507;50.392;7.482;2023-05-07T02:17:58;9.77;;;8.97;;
4980;SDS011;2507;50.392;7.482;2023-05-07T02:20:25;9.20;;;8.50;;
4980;SDS011;2507;50.392;7.482;2023-05-07T02:22:50;8.37;;;7.67;;
4980;SDS011;2507;50.392;7.482;2023-05-07T02:25:16;11.13;;;10.20;;
4980;SDS011;2507;50.392;7.482;2023-05-07T02:27:41;10.83;;;9.87;;
4980;SDS011;2507;50.392;7.482;2023-05-07T02:30:06;10.03;;;9.13;;
4980;SDS011;2507;50.392;7.482;2023-05-07T02:32:32;8.53;;;7.83;;
4980;SDS011;2507;50.392;7.482;2023-05-07T02:34:57;11.00;;;9.90;;
4980;SDS011;2507;50.392;7.482;2023-05-07T02:37:23;11.20;;;10.10;;
4980;SDS011;2507;50.392;7.482;2023-05-07T02:39:48;9.10;;;8.37;;
4980;SDS011;2507;50.392;7.482;2023-05-07T02:42:13;11.03;;;9.93;;
4980;SDS011;2507;50.392;7.482;2023-05-07T02:44:38;11.73;;;10.67;;
4980;SDS011;2507;50.392;7.482;2023-05-07T02:47:04;10.90;;;9.80;;
4980;SDS011;2507;50.392;7.482;2023-05-07T02:49:29;10.80;;;9.70;;
4980;SDS011;2507;50.392;7.482;2023-05-07T02:51:54;9.90;;;9.00;;
4980;SDS011;2507;50.392;7.482;2023-05-07T02:54:20;10.17;;;9.27;;
4980;SDS011;2507;50.392;7.482;2023-05-07T02:56:46;11.20;;;10.20;;
4980;SDS011;2507;50.392;7.482;2023-05-07T02:59:11;10.70;;;9.70;;
4980;SDS011;2507;50.392;7.482;2023-05-07T03:01:36;10.63;;;9.73;;
4980;SDS011;2507;50.392;7.482;2023-05-07T03:04:01;11.53;;;10.33;;
4980;SDS011;2507;50.392;7.482;2023-05-07T03:06:27;10.97;;;9.97;;
4980;SDS011;2507;50.392;7.482;2023-05-07T03:08:52;10.73;;;9.93;;
4980;SDS011;2507;50.392;7.482;2023-05-07T03:11:17;11.40;;;10.40;;
4980;SDS011;2507;50.392;7.482;2023-05-07T03:13:43;10.37;;;9.57;;
4980;SDS011;2507;50.392;7.482;2023-05-07T03:16:08;10.20;;;9.30;;
4980;SDS011;2507;50.392;7.482;2023-05-07T03:18:33;11.67;;;10.67;;
4980;SDS011;2507;50.392;7.482;2023-05-07T03:20:58;12.80;;;11.57;;
4980;SDS011;2507;50.392;7.482;2023-05-07T03:23:24;11.50;;;10.57;;
4980;SDS011;2507;50.392;7.482;2023-05-07T03:25:49;14.40;;;11.30;;
4980;SDS011;2507;50.392;7.482;2023-05-07T03:28:14;11.40;;;10.50;;
4980;SDS011;2507;50.392;7.482;2023-05-07T03:30:40;14.27;;;11.43;;
4980;SDS011;2507;50.392;7.482;2023-05-07T03:33:05;12.23;;;11.13;;
4980;SDS011;2507;50.392;7.482;2023-05-07T03:35:30;11.17;;;10.10;;
4980;SDS011;2507;50.392;7.482;2023-05-07T03:37:56;12.40;;;11.30;;
4980;SDS011;2507;50.392;7.482;2023-05-07T03:40:21;13.57;;;12.27;;
4980;SDS011;2507;50.392;7.482;2023-05-07T03:42:46;12.80;;;11.40;;
4980;SDS011;2507;50.392;7.482;2023-05-07T03:45:12;11.43;;;10.33;;
4980;SDS011;2507;50.392;7.482;2023-05-07T03:47:37;13.97;;;12.37;;
4980;SDS011;2507;50.392;7.482;2023-05-07T03:50:02;13.73;;;12.53;;
4980;SDS011;2507;50.392;7.482;2023-05-07T03:52:27;11.60;;;10.50;;
4980;SDS011;2507;50.392;7.482;2023-05-07T03:54:53;11.70;;;10.70;;
4980;SDS011;2507;50.392;7.482;2023-05-07T03:57:18;16.83;;;11.73;;
4980;SDS011;2507;50.392;7.482;2023-05-07T03:59:44;12.73;;;11.53;;
4980;SDS011;2507;50.392;7.482;2023-05-07T04:02:09;12.57;;;11.30;;
4980;SDS011;2507;50.392;7.482;2023-05-07T04:04:34;11.50;;;10.30;;
4980;SDS011;2507;50.392;7.482;2023-05-07T04:07:00;12.00;;;10.97;;
4980;SDS011;2507;50.392;7.482;2023-05-07T04:09:25;11.63;;;10.47;;
4980;SDS011;2507;50.392;7.482;2023-05-07T04:11:50;13.03;;;11.73;;
4980;SDS011;2507;50.392;7.482;2023-05-07T04:14:16;12.73;;;11.57;;
4980;SDS011;2507;50.392;7.482;2023-05-07T04:16:41;12.63;;;11.53;;
4980;SDS011;2507;50.392;7.482;2023-05-07T04:19:06;11.80;;;10.80;;
4980;SDS011;2507;50.392;7.482;2023-05-07T04:21:31;12.83;;;11.63;;
4980;SDS011;2507;50.392;7.482;2023-05-07T04:23:57;12.30;;;11.30;;
4980;SDS011;2507;50.392;7.482;2023-05-07T04:26:22;13.57;;;12.27;;
4980;SDS011;2507;50.392;7.482;2023-05-07T04:28:48;11.47;;;10.50;;
4980;SDS011;2507;50.392;7.482;2023-05-07T04:31:13;10.87;;;9.87;;
4980;SDS011;2507;50.392;7.482;2023-05-07T04:33:38;12.53;;;11.40;;
4980;SDS011;2507;50.392;7.482;2023-05-07T04:36:04;12.10;;;11.00;;
4980;SDS011;2507;50.392;7.482;2023-05-07T04:38:29;10.87;;;9.83;;
4980;SDS011;2507;50.392;7.482;2023-05-07T04:40:56;10.07;;;9.27;;
4980;SDS011;2507;50.392;7.482;2023-05-07T04:43:22;9.87;;;9.00;;
4980;SDS011;2507;50.392;7.482;2023-05-07T04:45:47;10.60;;;9.57;;
4980;SDS011;2507;50.392;7.482;2023-05-07T04:48:14;9.70;;;8.90;;
4980;SDS011;2507;50.392;7.482;2023-05-07T04:50:41;10.50;;;9.17;;
4980;SDS011;2507;50.392;7.482;2023-05-07T04:53:06;10.27;;;9.47;;
4980;SDS011;2507;50.392;7.482;2023-05-07T04:55:31;10.67;;;9.77;;
4980;SDS011;2507;50.392;7.482;2023-05-07T04:57:56;11.03;;;10.13;;
4980;SDS011;2507;50.392;7.482;2023-05-07T05:00:22;9.33;;;8.60;;
4980;SDS011;2507;50.392;7.482;2023-05-07T05:02:47;9.60;;;8.77;;
4980;SDS011;2507;50.392;7.482;2023-05-07T05:05:13;9.73;;;8.83;;
4980;SDS011;2507;50.392;7.482;2023-05-07T05:07:38;10.30;;;9.40;;
4980;SDS011;2507;50.392;7.482;2023-05-07T05:10:04;10.20;;;9.13;;
4980;SDS011;2507;50.392;7.482;2023-05-07T05:12:30;9.50;;;8.60;;
4980;SDS011;2507;50.392;7.482;2023-05-07T05:14:56;9.50;;;8.70;;
4980;SDS011;2507;50.392;7.482;2023-05-07T05:17:21;9.73;;;8.93;;
4980;SDS011;2507;50.392;7.482;2023-05-07T05:19:46;9.37;;;8.57;;
4980;SDS011;2507;50.392;7.482;2023-05-07T05:22:11;11.53;;;9.70;;
4980;SDS011;2507;50.392;7.482;2023-05-07T05:24:37;9.83;;;9.03;;
4980;SDS011;2507;50.392;7.482;2023-05-07T05:27:02;10.10;;;9.30;;
4980;SDS011;2507;50.392;7.482;2023-05-07T05:29:27;10.27;;;9.40;;
4980;SDS011;2507;50.392;7.482;2023-05-07T05:31:53;10.20;;;9.40;;
4980;SDS011;2507;50.392;7.482;2023-05-07T05:34:18;10.40;;;9.40;;
4980;SDS011;2507;50.392;7.482;2023-05-07T05:36:44;9.60;;;8.80;;
4980;SDS011;2507;50.392;7.482;2023-05-07T05:39:10;11.37;;;10.37;;
4980;SDS011;2507;50.392;7.482;2023-05-07T05:41:35;10.50;;;9.60;;
4980;SDS011;2507;50.392;7.482;2023-05-07T05:44:00;9.90;;;9.00;;
4980;SDS011;2507;50.392;7.482;2023-05-07T05:46:26;9.40;;;8.67;;
4980;SDS011;2507;50.392;7.482;2023-05-07T05:48:51;10.70;;;9.80;;
4980;SDS011;2507;50.392;7.482;2023-05-07T05:51:16;14.03;;;10.10;;
4980;SDS011;2507;50.392;7.482;2023-05-07T05:53:41;8.97;;;8.17;;
4980;SDS011;2507;50.392;7.482;2023-05-07T05:56:07;10.20;;;9.30;;
4980;SDS011;2507;50.392;7.482;2023-05-07T05:58:32;9.30;;;8.40;;
4980;SDS011;2507;50.392;7.482;2023-05-07T06:00:57;7.83;;;7.33;;
4980;SDS011;2507;50.392;7.482;2023-05-07T06:03:23;7.90;;;7.20;;
4980;SDS011;2507;50.392;7.482;2023-05-07T06:05:48;8.33;;;7.63;;
4980;SDS011;2507;50.392;7.482;2023-05-07T06:08:14;8.63;;;7.87;;
4980;SDS011;2507;50.392;7.482;2023-05-07T06:10:39;8.63;;;7.90;;
4980;SDS011;2507;50.392;7.482;2023-05-07T06:13:05;8.43;;;7.73;;
4980;SDS011;2507;50.392;7.482;2023-05-07T06:15:30;7.67;;;6.97;;
4980;SDS011;2507;50.392;7.482;2023-05-07T06:17:55;7.90;;;7.30;;
4980;SDS011;2507;50.392;7.482;2023-05-07T06:20:22;7.57;;;6.97;;
4980;SDS011;2507;50.392;7.482;2023-05-07T06:22:47;8.27;;;7.47;;
4980;SDS011;2507;50.392;7.482;2023-05-07T06:25:13;6.50;;;6.00;;
4980;SDS011;2507;50.392;7.482;2023-05-07T06:27:39;6.77;;;6.27;;
4980;SDS011;2507;50.392;7.482;2023-05-07T06:30:04;8.27;;;6.07;;
4980;SDS011;2507;50.392;7.482;2023-05-07T06:32:31;6.00;;;5.50;;
4980;SDS011;2507;50.392;7.482;2023-05-07T06:34:56;11.97;;;5.50;;
4980;SDS011;2507;50.392;7.482;2023-05-07T06:37:21;8.70;;;5.53;;
4980;SDS011;2507;50.392;7.482;2023-05-07T06:39:46;5.50;;;5.10;;
4980;SDS011;2507;50.392;7.482;2023-05-07T06:42:12;6.73;;;5.07;;
4980;SDS011;2507;50.392;7.482;2023-05-07T06:44:37;5.73;;;4.20;;
4980;SDS011;2507;50.392;7.482;2023-05-07T06:47:02;3.50;;;3.33;;
4980;SDS011;2507;50.392;7.482;2023-05-07T06:49:28;4.40;;;3.80;;
4980;SDS011;2507;50.392;7.482;2023-05-07T06:51:53;4.63;;;4.33;;
4980;SDS011;2507;50.392;7.482;2023-05-07T06:54:18;4.13;;;3.73;;
4980;SDS011;2507;50.392;7.482;2023-05-07T06:56:43;6.97;;;3.93;;
4980;SDS011;2507;50.392;7.482;2023-05-07T06:59:09;5.70;;;4.13;;
4980;SDS011;2507;50.392;7.482;2023-05-07T07:01:34;4.33;;;4.03;;
4980;SDS011;2507;50.392;7.482;2023-05-07T07:03:59;4.07;;;3.77;;
4980;SDS011;2507;50.392;7.482;2023-05-07T07:06:25;4.43;;;4.13;;
4980;SDS011;2507;50.392;7.482;2023-05-07T07:08:50;4.30;;;3.93;;
4980;SDS011;2507;50.392;7.482;2023-05-07T07:11:16;4.47;;;4.17;;
4980;SDS011;2507;50.392;7.482;2023-05-07T07:13:41;4.60;;;4.30;;
4980;SDS011;2507;50.392;7.482;2023-05-07T07:16:07;4.37;;;4.07;;
4980;SDS011;2507;50.392;7.482;2023-05-07T07:18:33;4.87;;;4.57;;
4980;SDS011;2507;50.392;7.482;2023-05-07T07:20:58;4.73;;;4.33;;
4980;SDS011;2507;50.392;7.482;2023-05-07T07:23:24;4.43;;;4.13;;
4980;SDS011;2507;50.392;7.482;2023-05-07T07:25:49;4.60;;;4.20;;
4980;SDS011;2507;50.392;7.482;2023-05-07T07:28:15;4.70;;;4.33;;
4980;SDS011;2507;50.392;7.482;2023-05-07T07:30:40;4.73;;;4.47;;
4980;SDS011;2507;50.392;7.482;2023-05-07T07:33:05;4.80;;;4.40;;
4980;SDS011;2507;50.392;7.482;2023-05-07T07:35:34;4.93;;;4.60;;
4980;SDS011;2507;50.392;7.482;2023-05-07T07:37:59;4.77;;;4.27;;
4980;SDS011;2507;50.392;7.482;2023-05-07T07:40:25;5.33;;;5.03;;
4980;SDS011;2507;50.392;7.482;2023-05-07T07:42:50;5.70;;;5.20;;
4980;SDS011;2507;50.392;7.482;2023-05-07T07:45:16;4.63;;;4.33;;
4980;SDS011;2507;50.392;7.482;2023-05-07T07:47:41;4.40;;;4.10;;
4980;SDS011;2507;50.392;7.482;2023-05-07T07:50:07;4.20;;;4.00;;
4980;SDS011;2507;50.392;7.482;2023-05-07T07:52:33;4.67;;;4.37;;
4980;SDS011;2507;50.392;7.482;2023-05-07T07:54:59;4.00;;;3.80;;
4980;SDS011;2507;50.392;7.482;2023-05-07T07:57:24;5.60;;;4.47;;
4980;SDS011;2507;50.392;7.482;2023-05-07T07:59:49;6.33;;;4.90;;
4980;SDS011;2507;50.392;7.482;2023-05-07T08:02:15;4.10;;;3.80;;
4980;SDS011;2507;50.392;7.482;2023-05-07T08:04:41;4.33;;;3.93;;
4980;SDS011;2507;50.392;7.482;2023-05-07T08:07:08;3.73;;;3.53;;
4980;SDS011;2507;50.392;7.482;2023-05-07T08:09:34;3.80;;;3.50;;
4980;SDS011;2507;50.392;7.482;2023-05-07T08:12:00;4.13;;;3.73;;
4980;SDS011;2507;50.392;7.482;2023-05-07T08:14:26;3.10;;;2.80;;
4980;SDS011;2507;50.392;7.482;2023-05-07T08:16:53;3.63;;;3.40;;
4980;SDS011;2507;50.392;7.482;2023-05-07T08:19:19;3.87;;;3.40;;
4980;SDS011;2507;50.392;7.482;2023-05-07T08:21:44;3.90;;;3.40;;
4980;SDS011;2507;50.392;7.482;2023-05-07T08:24:12;4.07;;;3.83;;
4980;SDS011;2507;50.392;7.482;2023-05-07T08:26:38;3.50;;;3.20;;
4980;SDS011;2507;50.392;7.482;2023-05-07T08:29:04;3.43;;;3.10;;
4980;SDS011;2507;50.392;7.482;2023-05-07T08:31:29;2.93;;;2.73;;
4980;SDS011;2507;50.392;7.482;2023-05-07T08:33:55;2.97;;;2.77;;
4980;SDS011;2507;50.392;7.482;2023-05-07T08:36:20;2.80;;;2.60;;
4980;SDS011;2507;50.392;7.482;2023-05-07T08:38:46;2.50;;;2.40;;
4980;SDS011;2507;50.392;7.482;2023-05-07T08:41:11;2.40;;;2.30;;
4980;SDS011;2507;50.392;7.482;2023-05-07T08:43:36;3.40;;;2.47;;
4980;SDS011;2507;50.392;7.482;2023-05-07T08:46:05;1.93;;;1.93;;
4980;SDS011;2507;50.392;7.482;2023-05-07T08:48:33;2.00;;;1.80;;
4980;SDS011;2507;50.392;7.482;2023-05-07T08:50:59;2.60;;;2.50;;
4980;SDS011;2507;50.392;7.482;2023-05-07T08:53:24;2.17;;;1.97;;
4980;SDS011;2507;50.392;7.482;2023-05-07T08:55:50;2.97;;;2.17;;
4980;SDS011;2507;50.392;7.482;2023-05-07T08:58:16;4.40;;;2.70;;
4980;SDS011;2507;50.392;7.482;2023-05-07T09:00:41;2.90;;;2.70;;
4980;SDS011;2507;50.392;7.482;2023-05-07T09:03:07;2.30;;;2.20;;
4980;SDS011;2507;50.392;7.482;2023-05-07T09:05:32;2.50;;;2.40;;
4980;SDS011;2507;50.392;7.482;2023-05-07T09:08:05;3.00;;;2.80;;
4980;SDS011;2507;50.392;7.482;2023-05-07T09:10:35;2.70;;;2.60;;
4980;SDS011;2507;50.392;7.482;2023-05-07T09:13:00;4.20;;;2.50;;
4980;SDS011;2507;50.392;7.482;2023-05-07T09:15:26;2.67;;;2.40;;
4980;SDS011;2507;50.392;7.482;2023-05-07T09:17:52;3.70;;;2.90;;
4980;SDS011;2507;50.392;7.482;2023-05-07T09:20:18;2.80;;;2.57;;
4980;SDS011;2507;50.392;7.482;2023-05-07T09:22:43;2.47;;;2.37;;
4980;SDS011;2507;50.392;7.482;2023-05-07T09:25:09;2.97;;;2.87;;
4980;SDS011;2507;50.392;7.482;2023-05-07T09:27:34;2.70;;;2.50;;
4980;SDS011;2507;50.392;7.482;2023-05-07T09:30:02;2.70;;;2.60;;
4980;SDS011;2507;50.392;7.482;2023-05-07T09:32:28;2.90;;;2.70;;
4980;SDS011;2507;50.392;7.482;2023-05-07T09:34:55;6.50;;;2.90;;
4980;SDS011;2507;50.392;7.482;2023-05-07T09:37:21;4.17;;;2.63;;
4980;SDS011;2507;50.392;7.482;2023-05-07T09:39:47;3.00;;;2.90;;
4980;SDS011;2507;50.392;7.482;2023-05-07T09:42:14;2.63;;;2.40;;
4980;SDS011;2507;50.392;7.482;2023-05-07T09:44:43;3.13;;;2.83;;
4980;SDS011;2507;50.392;7.482;2023-05-07T09:47:08;2.93;;;2.73;;
4980;SDS011;2507;50.392;7.482;2023-05-07T09:49:36;2.97;;;2.80;;
4980;SDS011;2507;50.392;7.482;2023-05-07T09:52:03;2.63;;;2.47;;
4980;SDS011;2507;50.392;7.482;2023-05-07T09:54:35;3.13;;;2.83;;
4980;SDS011;2507;50.392;7.482;2023-05-07T09:57:03;2.70;;;2.60;;
4980;SDS011;2507;50.392;7.482;2023-05-07T09:59:29;2.93;;;2.83;;
4980;SDS011;2507;50.392;7.482;2023-05-07T10:01:57;2.93;;;2.70;;
4980;SDS011;2507;50.392;7.482;2023-05-07T10:04:24;3.43;;;3.13;;
4980;SDS011;2507;50.392;7.482;2023-05-07T10:06:51;4.63;;;2.87;;
4980;SDS011;2507;50.392;7.482;2023-05-07T10:09:17;2.70;;;2.50;;
4980;SDS011;2507;50.392;7.482;2023-05-07T10:11:43;2.90;;;2.47;;
4980;SDS011;2507;50.392;7.482;2023-05-07T10:14:09;3.03;;;2.77;;
4980;SDS011;2507;50.392;7.482;2023-05-07T10:16:35;2.53;;;2.30;;
4980;SDS011;2507;50.392;7.482;2023-05-07T10:19:05;2.57;;;2.30;;
4980;SDS011;2507;50.392;7.482;2023-05-07T10:21:31;3.70;;;2.43;;
4980;SDS011;2507;50.392;7.482;2023-05-07T10:24:05;2.50;;;2.30;;
4980;SDS011;2507;50.392;7.482;2023-05-07T10:26:39;1.97;;;1.87;;
4980;SDS011;2507;50.392;7.482;2023-05-07T10:29:15;8.87;;;2.30;;
4980;SDS011;2507;50.392;7.482;2023-05-07T10:31:48;2.20;;;2.10;;
4980;SDS011;2507;50.392;7.482;2023-05-07T10:34:24;3.07;;;1.80;;
4980;SDS011;2507;50.392;7.482;2023-05-07T10:36:52;1.87;;;1.77;;
4980;SDS011;2507;50.392;7.482;2023-05-07T10:39:20;1.90;;;1.80;;
4980;SDS011;2507;50.392;7.482;2023-05-07T10:41:46;2.40;;;1.60;;
4980;SDS011;2507;50.392;7.482;2023-05-07T10:44:15;2.40;;;2.20;;
4980;SDS011;2507;50.392;7.482;2023-05-07T10:49:35;2.03;;;1.93;;
4980;SDS011;2507;50.392;7.482;2023-05-07T10:52:12;2.10;;;2.00;;
4980;SDS011;2507;50.392;7.482;2023-05-07T10:54:42;2.73;;;1.97;;
4980;SDS011;2507;50.392;7.482;2023-05-07T11:00:02;1.60;;;1.50;;
4980;SDS011;2507;50.392;7.482;2023-05-07T11:05:29;1.50;;;1.40;;
4980;SDS011;2507;50.392;7.482;2023-05-07T11:07:56;1.50;;;1.50;;
4980;SDS011;2507;50.392;7.482;2023-05-07T11:10:23;2.60;;;1.60;;
4980;SDS011;2507;50.392;7.482;2023-05-07T11:13:42;1.60;;;1.50;;
4980;SDS011;2507;50.392;7.482;2023-05-07T11:16:24;2.00;;;1.30;;
4980;SDS011;2507;50.392;7.482;2023-05-07T11:18:56;1.40;;;1.37;;
4980;SDS011;2507;50.392;7.482;2023-05-07T11:24:03;1.50;;;1.40;;
4980;SDS011;2507;50.392;7.482;2023-05-07T11:26:31;1.50;;;1.40;;
4980;SDS011;2507;50.392;7.482;2023-05-07T11:29:10;1.97;;;1.17;;
4980;SDS011;2507;50.392;7.482;2023-05-07T11:31:36;3.70;;;1.67;;
4980;SDS011;2507;50.392;7.482;2023-05-07T11:34:02;2.10;;;1.47;;
4980;SDS011;2507;50.392;7.482;2023-05-07T11:36:32;2.30;;;1.53;;
4980;SDS011;2507;50.392;7.482;2023-05-07T11:38:58;1.63;;;1.40;;
4980;SDS011;2507;50.392;7.482;2023-05-07T11:41:32;1.43;;;1.30;;
4980;SDS011;2507;50.392;7.482;2023-05-07T11:44:00;1.30;;;1.20;;
4980;SDS011;2507;50.392;7.482;2023-05-07T11:46:26;2.60;;;1.17;;
4980;SDS011;2507;50.392;7.482;2023-05-07T11:48:52;1.20;;;1.20;;
4980;SDS011;2507;50.392;7.482;2023-05-07T11:51:21;2.27;;;1.37;;
4980;SDS011;2507;50.392;7.482;2023-05-07T11:53:48;1.60;;;1.50;;
4980;SDS011;2507;50.392;7.482;2023-05-07T11:56:14;5.33;;;1.70;;
4980;SDS011;2507;50.392;7.482;2023-05-07T11:58:41;1.50;;;1.40;;
4980;SDS011;2507;50.392;7.482;2023-05-07T12:01:07;2.10;;;1.37;;
4980;SDS011;2507;50.392;7.482;2023-05-07T12:03:35;1.57;;;1.47;;
4980;SDS011;2507;50.392;7.482;2023-05-07T12:06:02;1.70;;;1.60;;
4980;SDS011;2507;50.392;7.482;2023-05-07T12:08:30;1.40;;;1.30;;
4980;SDS011;2507;50.392;7.482;2023-05-07T12:10:55;2.00;;;1.90;;
4980;SDS011;2507;50.392;7.482;2023-05-07T12:13:21;1.70;;;1.60;;
4980;SDS011;2507;50.392;7.482;2023-05-07T12:15:54;1.60;;;1.50;;
4980;SDS011;2507;50.392;7.482;2023-05-07T12:18:21;3.27;;;1.83;;
4980;SDS011;2507;50.392;7.482;2023-05-07T12:20:47;1.53;;;1.43;;
4980;SDS011;2507;50.392;7.482;2023-05-07T12:23:13;3.07;;;1.80;;
4980;SDS011;2507;50.392;7.482;2023-05-07T12:25:40;1.90;;;1.80;;
4980;SDS011;2507;50.392;7.482;2023-05-07T12:28:16;1.93;;;1.83;;
4980;SDS011;2507;50.392;7.482;2023-05-07T12:30:42;2.10;;;2.00;;
4980;SDS011;2507;50.392;7.482;2023-05-07T12:33:11;2.00;;;1.90;;
4980;SDS011;2507;50.392;7.482;2023-05-07T12:35:38;1.80;;;1.70;;
4980;SDS011;2507;50.392;7.482;2023-05-07T12:38:15;3.00;;;2.10;;
4980;SDS011;2507;50.392;7.482;2023-05-07T12:40:45;2.40;;;2.30;;
4980;SDS011;2507;50.392;7.482;2023-05-07T12:43:30;2.40;;;2.20;;
4980;SDS011;2507;50.392;7.482;2023-05-07T12:45:56;9.17;;;2.43;;
4980;SDS011;2507;50.392;7.482;2023-05-07T12:48:24;8.37;;;3.37;;
4980;SDS011;2507;50.392;7.482;2023-05-07T12:50:53;1.90;;;1.80;;
4980;SDS011;2507;50.392;7.482;2023-05-07T12:53:20;2.47;;;2.27;;
4980;SDS011;2507;50.392;7.482;2023-05-07T12:55:47;3.10;;;2.70;;
4980;SDS011;2507;50.392;7.482;2023-05-07T12:58:29;3.25;;;2.00;;
4980;SDS011;2507;50.392;7.482;2023-05-07T13:00:58;3.20;;;2.50;;
4980;SDS011;2507;50.392;7.482;2023-05-07T13:03:26;4.80;;;2.37;;
4980;SDS011;2507;50.392;7.482;2023-05-07T13:05:56;2.37;;;2.27;;
4980;SDS011;2507;50.392;7.482;2023-05-07T13:08:32;3.13;;;2.83;;
4980;SDS011;2507;50.392;7.482;2023-05-07T13:11:00;2.90;;;2.70;;
4980;SDS011;2507;50.392;7.482;2023-05-07T13:13:29;2.80;;;2.60;;
4980;SDS011;2507;50.392;7.482;2023-05-07T13:15:59;2.80;;;2.47;;
4980;SDS011;2507;50.392;7.482;2023-05-07T13:18:25;4.67;;;4.00;;
4980;SDS011;2507;50.392;7.482;2023-05-07T13:20:51;11.70;;;4.93;;
4980;SDS011;2507;50.392;7.482;2023-05-07T13:23:17;11.47;;;4.67;;
4980;SDS011;2507;50.392;7.482;2023-05-07T13:25:42;23.00;;;6.20;;
4980;SDS011;2507;50.392;7.482;2023-05-07T13:28:08;5.63;;;4.83;;
4980;SDS011;2507;50.392;7.482;2023-05-07T13:30:33;5.17;;;4.80;;
4980;SDS011;2507;50.392;7.482;2023-05-07T13:32:59;4.80;;;4.40;;
4980;SDS011;2507;50.392;7.482;2023-05-07T13:35:24;4.80;;;4.50;;
4980;SDS011;2507;50.392;7.482;2023-05-07T13:37:49;5.13;;;4.63;;
4980;SDS011;2507;50.392;7.482;2023-05-07T13:40:15;4.17;;;3.97;;
4980;SDS011;2507;50.392;7.482;2023-05-07T13:42:40;5.30;;;4.80;;
4980;SDS011;2507;50.392;7.482;2023-05-07T13:45:06;6.37;;;5.70;;
4980;SDS011;2507;50.392;7.482;2023-05-07T13:47:32;6.23;;;4.90;;
4980;SDS011;2507;50.392;7.482;2023-05-07T13:49:57;6.93;;;5.10;;
4980;SDS011;2507;50.392;7.482;2023-05-07T13:52:23;6.53;;;5.57;;
4980;SDS011;2507;50.392;7.482;2023-05-07T13:54:48;5.00;;;4.60;;
4980;SDS011;2507;50.392;7.482;2023-05-07T13:57:13;7.43;;;4.87;;
4980;SDS011;2507;50.392;7.482;2023-05-07T13:59:38;5.37;;;4.77;;
4980;SDS011;2507;50.392;7.482;2023-05-07T14:02:05;10.73;;;4.70;;
4980;SDS011;2507;50.392;7.482;2023-05-07T14:04:30;5.30;;;4.90;;
4980;SDS011;2507;50.392;7.482;2023-05-07T14:06:56;9.80;;;7.40;;
4980;SDS011;2507;50.392;7.482;2023-05-07T14:09:21;8.70;;;6.70;;
4980;SDS011;2507;50.392;7.482;2023-05-07T14:11:46;9.00;;;6.53;;
4980;SDS011;2507;50.392;7.482;2023-05-07T14:14:16;6.90;;;6.40;;
4980;SDS011;2507;50.392;7.482;2023-05-07T14:16:41;14.13;;;6.23;;
4980;SDS011;2507;50.392;7.482;2023-05-07T14:19:06;7.53;;;5.70;;
4980;SDS011;2507;50.392;7.482;2023-05-07T14:21:31;7.50;;;6.67;;
4980;SDS011;2507;50.392;7.482;2023-05-07T14:23:57;7.30;;;6.70;;
4980;SDS011;2507;50.392;7.482;2023-05-07T14:26:22;6.30;;;5.80;;
4980;SDS011;2507;50.392;7.482;2023-05-07T14:28:48;13.40;;;6.40;;
4980;SDS011;2507;50.392;7.482;2023-05-07T14:31:13;5.27;;;4.97;;
4980;SDS011;2507;50.392;7.482;2023-05-07T14:33:39;8.17;;;5.23;;
4980;SDS011;2507;50.392;7.482;2023-05-07T14:36:04;5.73;;;5.23;;
4980;SDS011;2507;50.392;7.482;2023-05-07T14:38:30;10.27;;;6.30;;
4980;SDS011;2507;50.392;7.482;2023-05-07T14:40:57;6.13;;;5.80;;
4980;SDS011;2507;50.392;7.482;2023-05-07T14:43:23;5.60;;;5.20;;
4980;SDS011;2507;50.392;7.482;2023-05-07T14:45:48;6.57;;;5.83;;
4980;SDS011;2507;50.392;7.482;2023-05-07T14:48:14;6.40;;;5.80;;
4980;SDS011;2507;50.392;7.482;2023-05-07T14:50:43;6.30;;;5.90;;
4980;SDS011;2507;50.392;7.482;2023-05-07T14:53:08;6.73;;;6.20;;
4980;SDS011;2507;50.392;7.482;2023-05-07T14:55:33;6.83;;;6.23;;
4980;SDS011;2507;50.392;7.482;2023-05-07T14:57:59;7.20;;;6.00;;
4980;SDS011;2507;50.392;7.482;2023-05-07T15:00:25;6.10;;;5.70;;
4980;SDS011;2507;50.392;7.482;2023-05-07T15:02:51;6.23;;;5.73;;
4980;SDS011;2507;50.392;7.482;2023-05-07T15:05:16;7.47;;;6.87;;
4980;SDS011;2507;50.392;7.482;2023-05-07T15:07:43;5.70;;;5.30;;
4980;SDS011;2507;50.392;7.482;2023-05-07T15:10:08;7.43;;;5.50;;
4980;SDS011;2507;50.392;7.482;2023-05-07T15:12:34;8.00;;;5.47;;
4980;SDS011;2507;50.392;7.482;2023-05-07T15:15:00;8.80;;;6.37;;
4980;SDS011;2507;50.392;7.482;2023-05-07T15:17:25;5.73;;;5.30;;